Aviation Digital Data Service (ADDS)

Output produced by METARs form (1041 UTC 19 June 2019)
found at http://www.aviationweather.gov/metar/data/
 
TAF KDAA 190900Z 1909/2015 22009KT 9999 BKN009 BKN040 OVC120 QNH2976INS 
     BECMG 1912/1913 21012KT 8000 -SHRA BKN025 OVC140 QNH2968INS 
     TEMPO 1913/1919 VRB10G20KT 4800 -TSRA BKN020CB 
     BECMG 1922/1923 18009KT 9999 NSW BKN030 QNH2962INS 
     BECMG 2002/2003 17007KT 8000 BR OVC006 QNH2964INS 
     BECMG 2014/2015 VRB06KT 4800 BR OVC005 QNH2964INS TX26/1917Z TN21/1909Z
       
KDAB 190532Z 1906/2006 21004KT P6SM FEW040 BKN250 
     FM191400 24008KT P6SM SCT035 BKN080 
     FM191700 24009KT P6SM VCTS SCT035CB BKN060 
     TEMPO 1918/1921 3SM TSRA BKN030CB 
     FM200100 22004KT P6SM FEW035 SCT080 BKN250
       
KDAG 190520Z 1906/2006 24011KT P6SM SKC 
     FM200000 27015G25KT P6SM SKC
       
KDAL 190910Z 1909/2006 02012KT P6SM -RA VCTS SCT050CB BKN250 
     FM191200 19010KT P6SM SCT120 BKN300 
     TEMPO 1912/1914 02012KT 
     FM191500 20016KT P6SM SCT040 
     FM192200 21015G25KT P6SM VCTS SCT050CB BKN120 
     FM200300 18009KT P6SM SCT120 BKN250
       
KDAN 190921Z 1909/2006 00000KT P6SM SCT002 BKN020 
     TEMPO 1909/1912 4SM BR BKN002 
     FM191300 21005KT P6SM BKN025 
     FM191500 21006KT P6SM BKN040 
     FM192000 20009KT P6SM VCTS SCT020CB BKN040 
     FM200000 VRB03KT P6SM BKN120
       
KDAY 190848Z 1909/2006 VRB03KT 3SM BR SCT002 BKN060 
     TEMPO 1909/1911 1SM BR OVC002 
     FM191300 20004KT P6SM BKN015 
     FM191700 22004KT P6SM VCSH BKN027 
     FM192100 22005KT P6SM -SHRA VCTS BKN040CB
       
KDBQ 190754Z 1908/2006 VRB03KT 3SM -RA BR SCT020 BKN060 
     FM191300 04005KT P6SM VCSH BKN025 
     FM192200 08005KT P6SM BKN035 
     FM200200 05005KT P6SM OVC050
       
KDCA 190900Z 1909/2012 20004KT 6SM BR BKN010 BKN100 
     FM191200 19004KT P6SM SCT020 BKN070 
     FM191500 19005KT P6SM -SHRA VCTS SCT025CB BKN090 
     FM200300 18005KT P6SM SCT020 OVC150 
     FM200600 VRB03KT 6SM BR SCT020 BKN130
       
KDDC 191008Z 1910/2006 34004KT P6SM OVC012 
     FM191400 VRB06KT P6SM SCT010
       
KDEC 190523Z 1906/2006 VRB03KT P6SM BKN080 
     FM191000 VRB03KT 6SM BR BKN060 
     FM191500 VRB04KT P6SM VCSH BKN035 
     FM191700 VRB03KT 6SM -SHRA BR VCTS OVC030CB 
     FM200200 VRB04KT 4SM -RA BR OVC020
       
KDEN 191015Z 1910/2012 22008KT P6SM SCT100 BKN200 
     FM191030 01011KT P6SM SCT100 BKN200 
     FM191400 34006KT P6SM FEW100 SCT220 
     FM191800 30010KT P6SM FEW110 SCT220 
     FM200100 27007KT P6SM FEW110 SCT220 
     FM200600 21009KT P6SM SCT220
       
KDET 190535Z 1906/2006 VRB03KT P6SM SCT050 BKN250 
     FM191400 20004KT P6SM SCT050 BKN120 
     FM192100 08005KT P6SM -SHRA BKN050 OVC120 
     FM200200 06006KT P6SM BKN050 OVC100
       
KDFW 190910Z 1909/2012 02012KT 5SM -RA VCTS SCT050CB BKN250 
     FM191100 19010KT P6SM SCT120 BKN300 
     TEMPO 1911/1913 02012KT 
     FM191500 20016KT P6SM SCT040 
     FM192200 21015G25KT P6SM VCTS SCT050CB BKN120 
     FM200300 18009KT P6SM SCT120 BKN250
       
KDHN 190526Z 1906/2006 18005KT P6SM BKN006 
     TEMPO 1909/1913 5SM BR BKN004 
     FM191400 24010KT P6SM VCTS BKN050CB 
     FM191900 23012KT P6SM BKN050 
     FM200100 23008KT P6SM BKN250
       
KDHT 190520Z 1906/2006 02009KT P6SM SCT200 
     FM190900 34005KT P6SM FEW200 
     FM192300 13007KT P6SM SCT200 
     FM200200 13008KT P6SM SKC 
     FM200500 16007KT P6SM SKC
       
KDIK 190524Z 1906/2006 14007KT P6SM VCSH OVC090 
     FM191400 13007KT P6SM VCSH SCT010 BKN035 
     FM191900 10009KT P6SM VCSH SCT035 BKN250 
     FM192200 08010KT P6SM VCSH FEW045 SCT250 
     FM200000 13009KT P6SM SCT040 BKN250
       
TAF KDLF 191000Z 1910/2016 10006KT 9999 FEW180 QNH2978INS 
     BECMG 1914/1915 15012KT 9999 FEW030 SCT220 QNH2967INS 
     BECMG 2002/2003 14006KT 9999 FEW250 QNH2970INS 
     BECMG 2014/2015 13010G15KT 9999 SCT030 SCT280 QNH2976INS TX37/1922Z
TN24/1911Z
       
KDLH 191011Z 1910/2006 VRB03KT P6SM SCT080 BKN120 
     TEMPO 1910/1912 3SM BR 
     FM191300 VRB02KT P6SM SCT060 
     FM191700 10007G15KT P6SM SCT070
       
KDLS 190528Z 1906/2006 30018G28KT P6SM FEW250 
     FM191700 31025G35KT P6SM FEW015 
     FM200500 30017G27KT P6SM SKC
       
TAF KDMA 190602Z 1906/2012 25009KT 9999 SKC QNH2997INS 
     BECMG 1919/1920 29010G15KT 9999 SKC QNH2995INS 
     BECMG 1922/1923 29009KT 9999 SKC QNH2988INS TX37/1920Z TN19/1911Z
       
KDMN 190520Z 1906/2006 25007KT P6SM SCT250 
     FM191900 27013G22KT P6SM FEW100 
     FM200300 27008KT P6SM SKC
       
KDNL 191025Z 1910/2006 VRB03KT P6SM BKN007 
     FM191430 24009KT P6SM SCT025 BKN040 
     FM200100 22005KT P6SM BKN250
       
TAF KDOV 190800Z 1908/2014 22007KT 9999 FEW110 QNH2982INS 
     BECMG 1909/1910 20007KT 9999 SCT010 BKN050 QNH2982INS 
     BECMG 1910/1911 20009KT 8000 BR BKN005 OVC015 QNH2980INS 
     BECMG 1913/1914 19007KT 9999 NSW BKN010 OVC020 QNH2975INS 
     TEMPO 1915/1921 VRB10G20KT 4800 -TSRA BKN010CB 
     BECMG 2002/2003 VRB06KT 9999 BKN008 QNH2971INS 
     TEMPO 2003/2006 4800 BR BKN001 OVC005 TX28/1917Z TN20/2005Z
       
KDPA 190910Z 1909/2006 VRB02KT 6SM BR SCT050 BKN100 
     FM191300 03006KT P6SM SCT050 OVC100 
     FM191500 05009KT P6SM VCSH SCT025 OVC040 
     FM192000 04010KT 5SM -SHRA BR SCT020 OVC035
       
KDRO 190520Z 1906/2006 00000KT P6SM FEW250 
     FM191800 28011G21KT P6SM FEW120 FEW250 
     FM192200 28016G27KT P6SM FEW100 FEW250 
     FM200200 29009KT P6SM SKC
       
KDRT 190542Z 1906/2006 11007KT P6SM VCSH SCT090 BKN150 
     FM191100 10006KT P6SM SCT015 
     FM191500 13008KT P6SM SCT100 SCT250 
     FM192300 14012KT P6SM VCSH SCT080 BKN200
       
KDSM 190904Z 1909/2006 05006KT P6SM VCSH SCT006 OVC030 
     TEMPO 1909/1913 OVC006 
     FM191500 04005KT P6SM OVC025 
     FM192200 03006KT P6SM BKN035 
     FM200300 03005KT P6SM SCT060
       
KDTW 190901Z 1909/2012 00000KT 3SM BR SCT045 BKN250 
     FM191400 20005KT P6SM SCT050 BKN120 
     FM192100 08005KT P6SM -SHRA BKN050 OVC120 
     FM200200 06007KT P6SM BKN050 OVC100 
     FM200900 01005KT 5SM -RA OVC025
       
KDUG 190520Z 1906/2006 29005KT P6SM SKC 
     FM190800 VRB04KT P6SM SKC 
     FM191900 25011G17KT P6SM SKC 
     FM200200 27009KT P6SM SKC
       
KDUJ 190520Z 1906/2006 VRB02KT 2SM BR BKN006 
     FM191300 VRB02KT P6SM BKN012 
     FM191700 VRB02KT P6SM VCSH BKN017 
     FM191900 VRB02KT P6SM VCSH BKN025
       
KDVL 190520Z 1906/2006 09005KT P6SM SCT100 
     FM191500 14010KT P6SM SCT150 
     FM200100 13008KT P6SM VCSH BKN100
       
KDVT 190520Z 1906/2006 VRB03KT P6SM SKC 
     FM191600 15006KT P6SM SKC 
     FM192000 23008KT P6SM SKC 
     FM200400 VRB04KT P6SM SKC
       
TAF KDYS 190600Z 1906/2012 19010G15KT 9999 FEW070 QNH2983INS 
     TEMPO 1906/1908 VRB12G18KT 9000 -TSRA BKN060CB 
     BECMG 1914/1915 22012G18KT 9999 FEW200 QNH2967INS 
     TEMPO 1915/1918 22015G25KT 
     TEMPO 1922/2000 24015G25KT VCTS BKN080CB 
     BECMG 2000/2001 VRB06KT 9999 FEW100 FEW160 QNH2967INS TX38/1921Z TN24/1912Z